createdAt,value
2023-02-13T00:01:51.198Z,100.00
2023-02-13T00:04:17.533Z,100.00
2023-02-13T00:06:44.521Z,100.00
2023-02-13T00:09:11.118Z,100.00
2023-02-13T00:11:37.463Z,100.00
2023-02-13T00:14:03.749Z,100.00
2023-02-13T00:16:30.033Z,100.00
2023-02-13T00:18:56.432Z,100.00
2023-02-13T00:21:22.712Z,100.00
2023-02-13T00:23:48.991Z,100.00
2023-02-13T00:26:16.216Z,100.00
2023-02-13T00:28:42.678Z,100.00
2023-02-13T00:31:10.140Z,100.00
2023-02-13T00:33:36.923Z,100.00
2023-02-13T00:36:07.344Z,100.00
2023-02-13T00:38:33.881Z,100.00
2023-02-13T00:41:00.165Z,100.00
2023-02-13T00:43:26.468Z,100.00
2023-02-13T00:45:52.792Z,100.00
2023-02-13T00:48:19.075Z,100.00
2023-02-13T00:50:46.274Z,100.00
2023-02-13T00:53:12.641Z,100.00
2023-02-13T00:55:39.078Z,100.00
2023-02-13T00:58:05.433Z,100.00
2023-02-13T01:00:31.820Z,100.00
2023-02-13T01:02:58.227Z,100.00
2023-02-13T01:05:24.626Z,100.00
2023-02-13T01:07:51.833Z,100.00
2023-02-13T01:10:18.193Z,100.00
2023-02-13T01:12:44.475Z,100.00
2023-02-13T01:15:10.889Z,100.00
2023-02-13T01:17:39.640Z,100.00
2023-02-13T01:20:09.881Z,100.00
2023-02-13T01:22:36.160Z,100.00
2023-02-13T01:25:02.714Z,100.00
2023-02-13T01:27:29.064Z,100.00
2023-02-13T01:29:55.492Z,100.00
2023-02-13T01:32:21.887Z,100.00
2023-02-13T01:34:48.195Z,100.00
2023-02-13T01:37:14.631Z,100.00
2023-02-13T01:39:40.906Z,100.00
2023-02-13T01:42:13.390Z,100.00
2023-02-13T01:44:54.086Z,100.00
2023-02-13T01:47:33.618Z,100.00
2023-02-13T01:50:18.697Z,100.00
2023-02-13T01:52:52.615Z,100.00
2023-02-13T01:55:18.985Z,100.00
2023-02-13T01:57:47.014Z,100.00
2023-02-13T02:00:14.191Z,100.00
2023-02-13T02:02:42.165Z,100.00
2023-02-13T02:05:08.534Z,100.00
2023-02-13T02:07:34.859Z,100.00
2023-02-13T02:10:05.778Z,100.00
2023-02-13T02:12:34.332Z,100.00
2023-02-13T02:15:00.655Z,100.00
2023-02-13T02:17:27.134Z,100.00
2023-02-13T02:19:53.420Z,100.00
2023-02-13T02:22:27.435Z,100.00
2023-02-13T02:25:04.303Z,100.00
2023-02-13T02:27:37.660Z,100.00
2023-02-13T02:30:27.404Z,100.00
2023-02-13T02:33:11.877Z,100.00
2023-02-13T02:35:38.117Z,100.00
2023-02-13T02:38:10.630Z,100.00
2023-02-13T02:40:36.880Z,100.00
2023-02-13T02:43:03.164Z,100.00
2023-02-13T02:45:33.278Z,100.00
2023-02-13T02:48:18.866Z,100.00
2023-02-13T02:50:45.159Z,100.00
2023-02-13T02:53:14.541Z,100.00
2023-02-13T02:55:48.541Z,100.00
2023-02-13T02:58:44.264Z,100.00
2023-02-13T03:01:30.744Z,100.00
2023-02-13T03:04:15.755Z,100.00
2023-02-13T03:06:53.037Z,100.00
2023-02-13T03:09:41.253Z,100.00
2023-02-13T03:12:26.379Z,100.00
2023-02-13T03:14:52.800Z,100.00
2023-02-13T03:17:37.784Z,100.00
2023-02-13T03:20:26.796Z,100.00
2023-02-13T03:22:59.477Z,100.00
2023-02-13T03:25:44.717Z,100.00
2023-02-13T03:28:30.782Z,100.00
2023-02-13T03:30:57.372Z,100.00
2023-02-13T03:33:27.485Z,100.00
2023-02-13T03:36:28.021Z,100.00
2023-02-13T03:39:03.696Z,100.00
2023-02-13T03:42:05.283Z,100.00
2023-02-13T03:44:31.560Z,100.00
2023-02-13T03:46:58.857Z,100.00
2023-02-13T03:49:45.465Z,100.00
2023-02-13T03:52:11.756Z,100.00
2023-02-13T03:55:02.032Z,100.00
2023-02-13T03:57:47.571Z,100.00
2023-02-13T04:00:14.760Z,100.00
2023-02-13T04:02:43.785Z,100.00
2023-02-13T04:05:17.290Z,100.00
2023-02-13T04:07:43.705Z,100.00
2023-02-13T04:10:16.543Z,100.00
2023-02-13T04:12:54.015Z,100.00
2023-02-13T04:15:31.739Z,100.00
2023-02-13T04:18:11.513Z,100.00
2023-02-13T04:20:37.975Z,100.00
2023-02-13T04:23:07.677Z,100.00
2023-02-13T04:25:34.685Z,100.00
2023-02-13T04:28:01.228Z,100.00
2023-02-13T04:30:27.593Z,100.00
2023-02-13T04:32:53.963Z,100.00
2023-02-13T04:35:20.301Z,100.00
2023-02-13T04:37:46.618Z,100.00
2023-02-13T04:40:13.046Z,100.00
2023-02-13T04:42:39.315Z,100.00
2023-02-13T04:45:05.733Z,100.00
2023-02-13T04:47:32.073Z,100.00
2023-02-13T04:49:58.346Z,100.00
2023-02-13T04:52:24.638Z,100.00
2023-02-13T04:54:50.973Z,100.00
2023-02-13T04:57:17.282Z,100.00
2023-02-13T04:59:43.657Z,100.00
2023-02-13T05:02:10.134Z,100.00
2023-02-13T05:04:36.501Z,100.00
2023-02-13T05:07:02.835Z,100.00
2023-02-13T05:09:29.131Z,100.00
2023-02-13T05:11:55.608Z,100.00
2023-02-13T05:14:21.883Z,100.00
2023-02-13T05:16:49.724Z,100.00
2023-02-13T05:19:16.510Z,100.00
2023-02-13T05:22:01.517Z,100.00
2023-02-13T05:24:27.817Z,100.00
2023-02-13T05:26:54.090Z,100.00
2023-02-13T05:29:20.560Z,100.00
2023-02-13T05:31:47.251Z,100.00
2023-02-13T05:34:13.620Z,100.00
2023-02-13T05:36:40.120Z,100.00
2023-02-13T05:39:06.642Z,100.00
2023-02-13T05:41:32.926Z,100.00
2023-02-13T05:43:59.246Z,100.00
2023-02-13T05:46:25.592Z,100.00
2023-02-13T05:48:52.091Z,100.00
2023-02-13T05:51:19.006Z,100.00
2023-02-13T05:53:45.320Z,100.00
2023-02-13T05:56:11.603Z,100.00
2023-02-13T05:58:38.161Z,100.00
2023-02-13T06:01:04.648Z,100.00
2023-02-13T06:03:31.179Z,100.00
2023-02-13T06:05:57.678Z,100.00
2023-02-13T06:08:23.983Z,100.00
2023-02-13T06:10:50.321Z,100.00
2023-02-13T06:13:17.017Z,100.00
2023-02-13T06:15:43.314Z,100.00
2023-02-13T06:18:09.699Z,100.00
2023-02-13T06:20:36.053Z,100.00
2023-02-13T06:23:02.400Z,100.00
2023-02-13T06:25:28.835Z,100.00
2023-02-13T06:27:55.132Z,100.00
2023-02-13T06:30:21.555Z,100.00
2023-02-13T06:32:48.401Z,100.00
2023-02-13T06:35:15.019Z,100.00
2023-02-13T06:37:43.108Z,100.00
2023-02-13T06:40:09.953Z,100.00
2023-02-13T06:42:36.319Z,100.00
2023-02-13T06:45:03.046Z,100.00
2023-02-13T06:47:29.569Z,100.00
2023-02-13T06:49:55.935Z,100.00
2023-02-13T06:52:22.394Z,100.00
2023-02-13T06:54:48.717Z,100.00
2023-02-13T06:57:15.335Z,100.00
2023-02-13T06:59:42.258Z,100.00
2023-02-13T07:02:15.148Z,100.00
2023-02-13T07:04:54.931Z,100.00
2023-02-13T07:07:21.628Z,100.00
2023-02-13T07:09:47.957Z,100.00
2023-02-13T07:12:14.333Z,100.00
2023-02-13T07:14:46.854Z,100.00
2023-02-13T07:17:13.190Z,100.00
2023-02-13T07:19:39.508Z,100.00
2023-02-13T07:22:05.814Z,100.00
2023-02-13T07:24:35.232Z,100.00
2023-02-13T07:27:07.665Z,100.00
2023-02-13T07:29:41.444Z,100.00
2023-02-13T07:32:09.078Z,100.00
2023-02-13T07:35:00.626Z,100.00
2023-02-13T07:37:28.285Z,100.00
2023-02-13T07:39:54.658Z,100.00
2023-02-13T07:42:21.033Z,100.00
2023-02-13T07:44:47.358Z,100.00
2023-02-13T07:47:13.960Z,100.00
2023-02-13T07:49:41.507Z,100.00
2023-02-13T07:52:10.030Z,100.00
2023-02-13T07:54:47.061Z,100.00
2023-02-13T07:57:17.055Z,100.00
2023-02-13T07:59:43.550Z,100.00
2023-02-13T08:02:30.122Z,100.00
2023-02-13T08:04:56.497Z,100.00
2023-02-13T08:07:36.190Z,100.00
2023-02-13T08:10:26.907Z,100.00
2023-02-13T08:12:53.499Z,100.00
2023-02-13T08:15:19.880Z,100.00
2023-02-13T08:17:46.352Z,100.00
2023-02-13T08:20:12.880Z,100.00
2023-02-13T08:22:39.369Z,100.00
2023-02-13T08:25:06.474Z,100.00
2023-02-13T08:27:32.931Z,100.00
2023-02-13T08:29:59.231Z,100.00
2023-02-13T08:32:25.699Z,100.00
2023-02-13T08:34:52.037Z,100.00
2023-02-13T08:37:18.567Z,100.00
2023-02-13T08:39:45.033Z,100.00
2023-02-13T08:42:15.154Z,100.00
2023-02-13T08:44:42.662Z,100.00
2023-02-13T08:47:09.569Z,100.00
2023-02-13T08:49:36.004Z,100.00
2023-02-13T08:52:02.598Z,100.00
2023-02-13T08:54:29.238Z,100.00
2023-02-13T08:56:57.204Z,100.00
2023-02-13T08:59:24.169Z,100.00
2023-02-13T09:01:50.441Z,100.00
2023-02-13T09:04:18.207Z,100.00
2023-02-13T09:06:44.546Z,100.00
2023-02-13T09:09:11.057Z,100.00
2023-02-13T09:11:37.352Z,100.00
2023-02-13T09:14:03.657Z,100.00
2023-02-13T09:16:30.003Z,100.00
2023-02-13T09:18:56.346Z,100.00
2023-02-13T09:21:23.648Z,100.00
2023-02-13T09:23:50.999Z,100.00
2023-02-13T09:26:19.686Z,100.00
2023-02-13T09:28:47.056Z,100.00
2023-02-13T09:31:16.952Z,100.00
2023-02-13T09:33:43.748Z,100.00
2023-02-13T09:36:11.361Z,100.00
2023-02-13T09:38:37.813Z,100.00
2023-02-13T09:41:05.891Z,100.00
2023-02-13T09:43:55.528Z,100.00
2023-02-13T09:46:24.881Z,100.00
2023-02-13T09:48:55.061Z,100.00
2023-02-13T09:51:23.125Z,100.00
2023-02-13T09:53:56.729Z,100.00
2023-02-13T09:56:49.897Z,100.00
2023-02-13T09:59:40.590Z,100.00
2023-02-13T10:02:25.307Z,100.00
2023-02-13T10:05:04.554Z,100.00
2023-02-13T10:07:37.349Z,100.00
2023-02-13T10:10:18.176Z,100.00
2023-02-13T10:12:56.568Z,100.00
2023-02-13T10:15:22.840Z,100.00
2023-02-13T10:17:51.661Z,100.00
2023-02-13T10:20:18.007Z,100.00
2023-02-13T10:22:49.128Z,100.00
2023-02-13T10:25:22.713Z,100.00
2023-02-13T10:27:56.153Z,100.00
2023-02-13T10:30:42.753Z,100.00
2023-02-13T10:33:19.811Z,100.00
2023-02-13T10:35:48.568Z,100.00
2023-02-13T10:38:16.666Z,100.00
2023-02-13T10:40:47.859Z,100.00
2023-02-13T10:43:15.552Z,100.00
2023-02-13T10:45:57.628Z,100.00
2023-02-13T10:48:26.048Z,100.00
2023-02-13T10:50:59.192Z,100.00
2023-02-13T10:53:25.470Z,100.00
2023-02-13T10:55:54.734Z,100.00
2023-02-13T10:58:22.859Z,100.00
2023-02-13T11:00:53.295Z,100.00
2023-02-13T11:03:20.672Z,100.00
2023-02-13T11:05:47.142Z,100.00
2023-02-13T11:08:30.840Z,100.00
2023-02-13T11:10:57.215Z,100.00
2023-02-13T11:13:24.594Z,100.00
2023-02-13T11:15:57.384Z,100.00
2023-02-13T11:18:26.276Z,100.00
2023-02-13T11:21:04.168Z,100.00
2023-02-13T11:23:30.626Z,100.00
2023-02-13T11:26:17.187Z,100.00
2023-02-13T11:29:04.368Z,100.00
2023-02-13T11:31:31.665Z,100.00
2023-02-13T11:33:59.345Z,100.00
2023-02-13T11:36:27.145Z,100.00
2023-02-13T11:38:57.989Z,100.00
2023-02-13T11:41:24.288Z,100.00
2023-02-13T11:43:51.103Z,100.00
2023-02-13T11:46:20.057Z,100.00
2023-02-13T11:49:01.962Z,100.00
2023-02-13T11:51:54.403Z,100.00
2023-02-13T11:54:30.033Z,100.00
2023-02-13T11:57:06.048Z,100.00
2023-02-13T11:59:41.403Z,100.00
2023-02-13T12:02:15.984Z,100.00
2023-02-13T12:04:42.716Z,100.00
2023-02-13T12:07:17.010Z,100.00
2023-02-13T12:09:44.432Z,100.00
2023-02-13T12:12:14.296Z,100.00
2023-02-13T12:14:40.993Z,100.00
2023-02-13T12:17:08.173Z,100.00
2023-02-13T12:19:42.371Z,100.00
2023-02-13T12:22:21.627Z,100.00
2023-02-13T12:24:51.768Z,100.00
2023-02-13T12:27:21.044Z,100.00
2023-02-13T12:29:50.460Z,97.69
2023-02-13T12:32:20.571Z,95.96
2023-02-13T12:34:59.074Z,100.00
2023-02-13T12:37:37.714Z,98.12
2023-02-13T12:40:24.645Z,100.00
2023-02-13T12:42:56.365Z,100.00
2023-02-13T12:45:33.790Z,96.85
2023-02-13T12:48:00.089Z,92.44
2023-02-13T12:50:28.696Z,95.77
2023-02-13T12:52:58.098Z,87.64
2023-02-13T12:55:30.498Z,93.49
2023-02-13T12:58:18.622Z,87.78
2023-02-13T13:00:51.015Z,87.58
2023-02-13T13:03:29.546Z,85.44
2023-02-13T13:06:12.385Z,91.36
2023-02-13T13:08:38.961Z,97.57
2023-02-13T13:11:34.938Z,100.00
2023-02-13T13:14:06.596Z,82.93
2023-02-13T13:16:45.100Z,87.12
2023-02-13T13:19:14.514Z,100.00
2023-02-13T13:21:55.497Z,100.00
2023-02-13T13:24:38.937Z,100.00
2023-02-13T13:27:05.271Z,92.75
2023-02-13T13:29:44.820Z,85.95
2023-02-13T13:32:16.426Z,89.68
2023-02-13T13:34:42.710Z,80.20
2023-02-13T13:37:32.327Z,86.62
2023-02-13T13:40:01.742Z,87.71
2023-02-13T13:42:48.298Z,83.83
2023-02-13T13:45:17.987Z,89.29
2023-02-13T13:48:04.535Z,82.27
2023-02-13T13:50:31.853Z,81.60
2023-02-13T13:53:07.435Z,76.76
2023-02-13T13:55:58.272Z,71.46
2023-02-13T13:58:27.569Z,75.79
2023-02-13T14:01:12.879Z,70.63
2023-02-13T14:03:39.352Z,77.78
2023-02-13T14:06:07.207Z,77.87
2023-02-13T14:08:39.566Z,72.69
2023-02-13T14:11:06.665Z,71.54
2023-02-13T14:13:42.844Z,69.84
2023-02-13T14:16:12.419Z,69.36
2023-02-13T14:18:39.854Z,72.57
2023-02-13T14:21:06.154Z,65.50
2023-02-13T14:23:32.449Z,63.24
2023-02-13T14:26:12.113Z,62.96
2023-02-13T14:28:39.036Z,62.00
2023-02-13T14:31:06.106Z,62.62
2023-02-13T14:33:32.394Z,61.91
2023-02-13T14:35:59.764Z,61.47
2023-02-13T14:38:26.177Z,63.45
2023-02-13T14:40:52.803Z,66.18
2023-02-13T14:43:28.363Z,72.64
2023-02-13T14:45:55.931Z,73.11
2023-02-13T14:48:31.567Z,66.49
2023-02-13T14:51:00.031Z,65.42
2023-02-13T14:53:28.813Z,68.00
2023-02-13T14:55:59.431Z,68.71
2023-02-13T14:58:33.497Z,68.77
2023-02-13T15:01:02.916Z,68.20
2023-02-13T15:03:41.436Z,66.47
2023-02-13T15:06:13.140Z,64.31
2023-02-13T15:08:47.259Z,65.31
2023-02-13T15:11:35.810Z,76.96
2023-02-13T15:14:21.125Z,77.40
2023-02-13T15:16:52.257Z,80.27
2023-02-13T15:19:19.115Z,82.99
2023-02-13T15:21:49.226Z,86.99
2023-02-13T15:24:15.616Z,89.88
2023-02-13T15:26:41.996Z,82.63
2023-02-13T15:29:25.796Z,84.08
2023-02-13T15:31:53.314Z,85.91
2023-02-13T15:34:20.421Z,82.15
2023-02-13T15:36:46.948Z,84.34
2023-02-13T15:39:16.375Z,98.49
2023-02-13T15:41:43.429Z,100.00
2023-02-13T15:44:14.135Z,100.00
2023-02-13T15:46:40.481Z,100.00
2023-02-13T15:49:07.862Z,100.00
2023-02-13T15:51:34.934Z,100.00
2023-02-13T15:54:02.953Z,100.00
2023-02-13T15:56:31.108Z,100.00
2023-02-13T15:58:57.976Z,100.00
2023-02-13T16:01:24.489Z,100.00
2023-02-13T16:04:09.098Z,100.00
2023-02-13T16:06:35.439Z,100.00
2023-02-13T16:09:01.885Z,100.00
2023-02-13T16:11:29.658Z,100.00
2023-02-13T16:14:02.388Z,100.00
2023-02-13T16:16:29.194Z,100.00
2023-02-13T16:18:55.553Z,100.00
2023-02-13T16:21:22.859Z,100.00
2023-02-13T16:23:49.227Z,100.00
2023-02-13T16:26:15.526Z,100.00
2023-02-13T16:28:41.843Z,100.00
2023-02-13T16:31:13.174Z,100.00
2023-02-13T16:33:41.434Z,100.00
2023-02-13T16:36:10.930Z,100.00
2023-02-13T16:38:38.670Z,100.00
2023-02-13T16:41:17.488Z,100.00
2023-02-13T16:43:45.360Z,100.00
2023-02-13T16:46:14.967Z,100.00
2023-02-13T16:48:45.012Z,100.00
2023-02-13T16:51:11.419Z,100.00
2023-02-13T16:53:37.702Z,100.00
2023-02-13T16:56:10.777Z,100.00
2023-02-13T16:58:37.237Z,100.00
2023-02-13T17:01:03.938Z,100.00
2023-02-13T17:03:33.292Z,100.00
2023-02-13T17:06:03.344Z,100.00
2023-02-13T17:08:30.604Z,100.00
2023-02-13T17:11:04.421Z,100.00
2023-02-13T17:13:30.728Z,100.00
2023-02-13T17:15:58.267Z,100.00
2023-02-13T17:18:24.571Z,100.00
2023-02-13T17:20:50.865Z,100.00
2023-02-13T17:23:18.292Z,100.00
2023-02-13T17:25:46.167Z,100.00
2023-02-13T17:28:12.551Z,100.00
2023-02-13T17:30:38.823Z,100.00
2023-02-13T17:33:12.801Z,100.00
2023-02-13T17:35:39.274Z,100.00
2023-02-13T17:38:07.496Z,100.00
2023-02-13T17:40:33.788Z,100.00
2023-02-13T17:43:00.131Z,100.00
2023-02-13T17:45:27.828Z,100.00
2023-02-13T17:47:54.244Z,100.00
2023-02-13T17:50:20.853Z,100.00
2023-02-13T17:52:48.863Z,100.00
2023-02-13T17:55:25.302Z,100.00
2023-02-13T17:57:51.859Z,100.00
2023-02-13T18:00:20.210Z,100.00
2023-02-13T18:02:47.864Z,100.00
2023-02-13T18:05:14.881Z,100.00
2023-02-13T18:07:42.699Z,100.00
2023-02-13T18:10:12.965Z,100.00
2023-02-13T18:12:39.428Z,100.00
2023-02-13T18:15:05.943Z,100.00
2023-02-13T18:17:32.288Z,100.00
2023-02-13T18:19:58.725Z,100.00
2023-02-13T18:22:25.059Z,100.00
2023-02-13T18:24:51.420Z,100.00
2023-02-13T18:27:17.735Z,100.00
2023-02-13T18:29:44.117Z,100.00
2023-02-13T18:32:10.816Z,100.00
2023-02-13T18:34:37.783Z,100.00
2023-02-13T18:37:04.561Z,100.00
2023-02-13T18:39:31.728Z,100.00
2023-02-13T18:41:58.825Z,100.00
2023-02-13T18:44:28.628Z,100.00
2023-02-13T18:46:55.268Z,100.00
2023-02-13T18:49:21.585Z,100.00
2023-02-13T18:51:47.990Z,100.00
2023-02-13T18:54:14.358Z,100.00
2023-02-13T18:56:40.665Z,100.00
2023-02-13T18:59:06.973Z,100.00
2023-02-13T19:01:35.268Z,100.00
2023-02-13T19:04:02.672Z,100.00
2023-02-13T19:06:29.014Z,100.00
2023-02-13T19:08:55.963Z,100.00
2023-02-13T19:11:26.283Z,100.00
2023-02-13T19:13:56.447Z,100.00
2023-02-13T19:16:22.890Z,100.00
2023-02-13T19:18:52.865Z,100.00
2023-02-13T19:21:20.071Z,100.00
2023-02-13T19:23:46.453Z,100.00
2023-02-13T19:26:13.977Z,100.00
2023-02-13T19:28:40.551Z,100.00
2023-02-13T19:31:08.751Z,100.00
2023-02-13T19:33:35.905Z,100.00
2023-02-13T19:36:03.490Z,100.00
2023-02-13T19:38:29.972Z,100.00
2023-02-13T19:40:56.542Z,100.00
2023-02-13T19:43:23.069Z,100.00
2023-02-13T19:45:49.605Z,100.00
2023-02-13T19:48:15.995Z,100.00
2023-02-13T19:50:42.333Z,100.00
2023-02-13T19:53:08.871Z,100.00
2023-02-13T19:55:35.173Z,100.00
2023-02-13T19:58:01.483Z,100.00
2023-02-13T20:00:27.783Z,100.00
2023-02-13T20:02:57.110Z,100.00
2023-02-13T20:05:23.436Z,100.00
2023-02-13T20:07:49.732Z,100.00
2023-02-13T20:10:16.051Z,100.00
2023-02-13T20:12:42.391Z,100.00
2023-02-13T20:15:08.852Z,100.00
2023-02-13T20:17:35.896Z,100.00
2023-02-13T20:20:03.955Z,100.00
2023-02-13T20:22:30.913Z,100.00
2023-02-13T20:24:57.245Z,100.00
2023-02-13T20:27:23.645Z,100.00
2023-02-13T20:29:51.399Z,100.00
2023-02-13T20:32:17.979Z,100.00
2023-02-13T20:34:59.160Z,100.00
2023-02-13T20:37:26.091Z,100.00
2023-02-13T20:39:52.448Z,100.00
2023-02-13T20:42:18.873Z,100.00
2023-02-13T20:44:46.674Z,100.00
2023-02-13T20:47:13.021Z,100.00
2023-02-13T20:49:41.201Z,100.00
2023-02-13T20:52:07.525Z,100.00
2023-02-13T20:54:34.031Z,100.00
2023-02-13T20:57:00.368Z,100.00
2023-02-13T20:59:26.925Z,100.00
2023-02-13T21:01:53.286Z,100.00
2023-02-13T21:04:20.571Z,100.00
2023-02-13T21:06:47.138Z,100.00
2023-02-13T21:09:13.961Z,100.00
2023-02-13T21:11:42.618Z,100.00
2023-02-13T21:14:10.451Z,100.00
2023-02-13T21:16:38.031Z,100.00
2023-02-13T21:19:05.697Z,100.00
2023-02-13T21:21:32.699Z,100.00
2023-02-13T21:24:00.235Z,100.00
2023-02-13T21:26:26.550Z,100.00
2023-02-13T21:28:52.936Z,100.00
2023-02-13T21:31:20.878Z,100.00
2023-02-13T21:33:47.266Z,100.00
2023-02-13T21:36:13.691Z,100.00
2023-02-13T21:38:40.225Z,100.00
2023-02-13T21:41:10.956Z,100.00
2023-02-13T21:43:41.937Z,100.00
2023-02-13T21:46:12.084Z,100.00
2023-02-13T21:48:39.124Z,100.00
2023-02-13T21:51:06.655Z,100.00
2023-02-13T21:53:32.991Z,100.00
2023-02-13T21:56:00.870Z,100.00
2023-02-13T21:58:27.608Z,100.00
2023-02-13T22:00:53.916Z,100.00
2023-02-13T22:03:20.269Z,100.00
2023-02-13T22:05:47.098Z,100.00
2023-02-13T22:08:13.388Z,100.00
2023-02-13T22:10:39.689Z,100.00
2023-02-13T22:13:06.901Z,100.00
2023-02-13T22:15:33.292Z,100.00
2023-02-13T22:17:59.655Z,100.00
2023-02-13T22:20:26.017Z,100.00
2023-02-13T22:22:52.295Z,100.00
2023-02-13T22:25:18.602Z,100.00
2023-02-13T22:27:47.963Z,100.00
2023-02-13T22:30:15.246Z,100.00
2023-02-13T22:32:41.656Z,100.00
2023-02-13T22:35:11.015Z,100.00
2023-02-13T22:37:37.667Z,100.00
2023-02-13T22:40:04.817Z,100.00
2023-02-13T22:42:31.148Z,100.00
2023-02-13T22:44:57.435Z,100.00
2023-02-13T22:47:23.734Z,100.00
2023-02-13T22:49:50.060Z,100.00
2023-02-13T22:52:16.349Z,100.00
2023-02-13T22:54:42.629Z,100.00
2023-02-13T22:57:08.933Z,100.00
2023-02-13T22:59:38.707Z,100.00
2023-02-13T23:02:06.281Z,100.00
2023-02-13T23:04:32.794Z,100.00
2023-02-13T23:06:59.086Z,100.00
2023-02-13T23:09:25.412Z,100.00
2023-02-13T23:12:10.523Z,100.00
2023-02-13T23:14:36.822Z,100.00
2023-02-13T23:17:22.125Z,100.00
2023-02-13T23:19:48.522Z,100.00
2023-02-13T23:22:16.204Z,100.00
2023-02-13T23:24:42.543Z,100.00
2023-02-13T23:27:08.854Z,100.00
2023-02-13T23:29:35.142Z,100.00
2023-02-13T23:32:01.721Z,100.00
2023-02-13T23:34:28.079Z,100.00
2023-02-13T23:36:54.497Z,100.00
2023-02-13T23:39:21.377Z,100.00
2023-02-13T23:41:47.699Z,100.00
2023-02-13T23:44:14.106Z,100.00
2023-02-13T23:46:40.464Z,100.00
2023-02-13T23:49:07.603Z,100.00
2023-02-13T23:51:33.998Z,100.00
2023-02-13T23:54:00.481Z,100.00
2023-02-13T23:56:26.856Z,100.00
2023-02-13T23:58:53.377Z,100.00
